Time;durP1;ratioP1;P1;durP2;ratioP2;P2;SDS_P1;SDS_P2;PMS_P1;PMS_P2;Temp;Humidity;BMP_temperature;BMP_pressure;BME280_temperature;BME280_humidity;BME280_pressure;Samples;Min_cycle;Max_cycle;Signal;HPM_P1;HPM_P2
2021/05/22 00:00:40;;;;;;;;;;;;;;;10.81;53.03;99817.82;1717430;83;20230;-73
2021/05/22 00:03:06;;;;;;;;;;;;;;;10.77;53.03;99824.82;1712429;83;20202;-73
2021/05/22 00:05:38;;;;;;;;;;;;;;;10.75;53.07;99827.05;1708604;83;20224;-73
2021/05/22 00:08:04;;;;;;;;;;;;;;;10.74;53.11;99819.73;1717192;83;20206;-73
2021/05/22 00:10:30;;;;;;;;;;;;;;;10.70;53.26;99823.75;1719045;83;20191;-73
2021/05/22 00:12:59;;;;;;;;;;;;;;;10.69;53.35;99817.73;1709869;83;20201;-73
2021/05/22 00:15:25;;;;;;;;;;;;;;;10.69;53.44;99816.44;1698748;83;20172;-73
2021/05/22 00:17:51;;;;;;;;;;;;;;;10.69;53.49;99817.73;1719800;83;20175;-73
2021/05/22 00:20:17;;;;;;;;;;;;;;;10.67;53.43;99809.62;1711100;83;20181;-73
2021/05/22 00:22:45;;;;;;;;;;;;;;;10.51;53.38;99815.23;1717142;83;20813;-73
2021/05/22 00:25:12;;;;;;;;;;;;;;;10.43;53.58;99814.59;1717909;83;20214;-73
2021/05/22 00:27:38;;;;;;;;;;;;;;;10.44;53.69;99806.39;1715382;83;20517;-73
2021/05/22 00:30:05;;;;;;;;;;;;;;;10.45;53.69;99806.36;1716966;83;20211;-73
2021/05/22 00:32:31;;;;;;;;;;;;;;;10.43;53.69;99800.83;1728354;81;20183;-73
2021/05/22 00:34:58;;;;;;;;;;;;;;;10.38;53.75;99802.28;1726081;81;20195;-73
2021/05/22 00:37:27;;;;;;;;;;;;;;;10.29;53.74;99803.83;1723301;81;20189;-73
2021/05/22 00:39:53;;;;;;;;;;;;;;;10.17;53.92;99796.38;1720602;81;20786;-73
2021/05/22 00:42:19;;;;;;;;;;;;;;;10.16;54.05;99800.70;1728771;81;20190;-73
2021/05/22 00:45:11;;;;;;;;;;;;;;;10.12;53.99;99799.53;1735002;81;20256;-73
2021/05/22 00:47:44;;;;;;;;;;;;;;;10.12;54.01;99805.98;1716309;81;20283;-73
2021/05/22 00:50:13;;;;;;;;;;;;;;;10.10;54.00;99801.31;1729322;81;20202;-73
2021/05/22 00:52:39;;;;;;;;;;;;;;;10.04;54.04;99803.61;1721828;81;20256;-73
2021/05/22 00:55:09;;;;;;;;;;;;;;;10.01;54.17;99798.97;1721614;81;20229;-73
2021/05/22 00:57:37;;;;;;;;;;;;;;;9.97;54.18;99803.37;1712295;81;20225;-73
2021/05/22 01:00:05;;;;;;;;;;;;;;;9.95;54.29;99793.08;1725269;81;20181;-73
2021/05/22 01:02:33;;;;;;;;;;;;;;;9.96;54.30;99791.34;1719426;82;20164;-73
2021/05/22 01:05:00;;;;;;;;;;;;;;;9.94;54.35;99793.13;1718580;81;20209;-73
2021/05/22 01:07:26;;;;;;;;;;;;;;;9.94;54.41;99794.41;1722316;81;20263;-73
2021/05/22 01:09:55;;;;;;;;;;;;;;;9.93;54.54;99791.42;1715264;83;20213;-73
2021/05/22 01:12:25;;;;;;;;;;;;;;;9.91;54.55;99789.33;1721553;81;20171;-73
2021/05/22 01:14:55;;;;;;;;;;;;;;;9.89;54.70;99791.95;1731177;81;20207;-73
2021/05/22 01:17:23;;;;;;;;;;;;;;;9.84;54.84;99792.55;1725516;83;20182;-73
2021/05/22 01:20:04;;;;;;;;;;;;;;;9.85;54.87;99800.70;1721831;82;20173;-73
2021/05/22 01:22:40;;;;;;;;;;;;;;;9.86;54.87;99789.92;1723328;82;20210;-73
2021/05/22 01:25:26;;;;;;;;;;;;;;;9.87;54.95;99788.59;1703245;81;20644;-73
2021/05/22 01:27:52;;;;;;;;;;;;;;;9.91;54.97;99788.03;1714986;81;20149;-73
2021/05/22 01:30:19;;;;;;;;;;;;;;;9.90;55.03;99774.72;1734274;81;20173;-73
2021/05/22 01:32:46;;;;;;;;;;;;;;;9.86;55.18;99775.72;1727854;81;20479;-73
2021/05/22 01:35:15;;;;;;;;;;;;;;;9.86;55.30;99755.91;1682687;81;20209;-73
2021/05/22 01:37:41;;;;;;;;;;;;;;;9.89;55.32;99762.25;1711234;81;20191;-73
2021/05/22 01:40:09;;;;;;;;;;;;;;;9.88;55.46;99754.10;1724520;81;20201;-73
2021/05/22 01:42:35;;;;;;;;;;;;;;;9.87;55.42;99758.89;1725123;81;20190;-73
2021/05/22 01:45:07;;;;;;;;;;;;;;;9.88;55.47;99757.13;1727123;81;20167;-73
2021/05/22 01:47:34;;;;;;;;;;;;;;;9.90;55.49;99748.90;1734456;81;20580;-73
2021/05/22 01:50:02;;;;;;;;;;;;;;;9.86;55.50;99745.58;1722268;81;20548;-73
2021/05/22 01:52:31;;;;;;;;;;;;;;;9.85;55.52;99748.20;1729414;81;20238;-73
2021/05/22 01:54:58;;;;;;;;;;;;;;;9.81;55.48;99746.15;1712156;81;20191;-73
2021/05/22 01:57:24;;;;;;;;;;;;;;;9.79;55.59;99739.33;1723484;81;20189;-73
2021/05/22 01:59:52;;;;;;;;;;;;;;;9.76;55.71;99727.35;1723581;82;20904;-73
2021/05/22 02:02:21;;;;;;;;;;;;;;;9.72;55.87;99724.89;1722642;81;20504;-73
2021/05/22 02:04:47;;;;;;;;;;;;;;;9.73;55.94;99737.76;1724915;82;20191;-73
2021/05/22 02:07:20;;;;;;;;;;;;;;;9.73;55.97;99741.63;1709158;81;20165;-73
2021/05/22 02:09:47;;;;;;;;;;;;;;;9.75;56.10;99742.44;1710244;81;20193;-73
2021/05/22 02:12:13;;;;;;;;;;;;;;;9.77;56.10;99743.69;1725976;81;20171;-73
2021/05/22 02:14:42;;;;;;;;;;;;;;;9.79;56.13;99742.77;1716099;82;20604;-73
2021/05/22 02:17:09;;;;;;;;;;;;;;;9.80;56.04;99749.63;1726419;81;20147;-73
2021/05/22 02:19:39;;;;;;;;;;;;;;;9.79;56.08;99741.47;1734264;81;20780;-73
2021/05/22 02:22:07;;;;;;;;;;;;;;;9.79;56.14;99731.14;1722841;83;20525;-73
2021/05/22 02:24:33;;;;;;;;;;;;;;;9.78;56.11;99731.19;1705343;83;20230;-73
2021/05/22 02:27:00;;;;;;;;;;;;;;;9.76;56.14;99727.80;1718427;81;20220;-73
2021/05/22 02:29:28;;;;;;;;;;;;;;;9.73;56.20;99721.42;1696531;82;20180;-73
2021/05/22 02:31:54;;;;;;;;;;;;;;;9.72;56.25;99722.31;1725497;82;20190;-73
2021/05/22 02:34:30;;;;;;;;;;;;;;;9.73;56.31;99727.44;1722410;82;20595;-73
2021/05/22 02:36:56;;;;;;;;;;;;;;;9.74;56.36;99729.57;1720174;81;20510;-73
2021/05/22 02:39:24;;;;;;;;;;;;;;;9.73;56.44;99728.72;1722201;83;20549;-73
2021/05/22 02:41:51;;;;;;;;;;;;;;;9.74;56.47;99733.00;1720843;81;20547;-73
2021/05/22 02:44:17;;;;;;;;;;;;;;;9.75;56.61;99738.56;1709035;81;20325;-73
2021/05/22 02:46:47;;;;;;;;;;;;;;;9.76;56.68;99744.58;1721673;81;20194;-73
2021/05/22 02:49:15;;;;;;;;;;;;;;;9.76;56.70;99743.28;1733748;81;20875;-73
2021/05/22 02:51:42;;;;;;;;;;;;;;;9.76;56.72;99734.25;1741061;81;20830;-73
2021/05/22 02:54:09;;;;;;;;;;;;;;;9.77;56.87;99739.38;1725502;82;20210;-73
2021/05/22 02:56:35;;;;;;;;;;;;;;;9.78;56.87;99741.52;1706646;81;20536;-73
2021/05/22 02:59:15;;;;;;;;;;;;;;;9.80;56.98;99744.90;1723587;81;20887;-74
2021/05/22 03:01:41;;;;;;;;;;;;;;;9.82;57.10;99747.84;1714837;81;20744;-73
2021/05/22 03:04:07;;;;;;;;;;;;;;;9.84;57.11;99748.65;1719506;81;20639;-73
2021/05/22 03:06:33;;;;;;;;;;;;;;;9.88;57.27;99756.69;1698968;82;20579;-73
2021/05/22 03:08:59;;;;;;;;;;;;;;;9.91;57.29;99751.44;1719452;81;20291;-73
2021/05/22 03:11:27;;;;;;;;;;;;;;;9.91;57.23;99744.14;1724864;81;20565;-74
2021/05/22 03:13:53;;;;;;;;;;;;;;;9.92;57.41;99740.22;1707790;81;20684;-73
2021/05/22 03:16:19;;;;;;;;;;;;;;;9.95;57.51;99745.30;1720310;82;20544;-73
2021/05/22 03:18:45;;;;;;;;;;;;;;;9.98;57.48;99742.23;1716249;81;21179;-73
2021/05/22 03:21:12;;;;;;;;;;;;;;;10.04;57.57;99738.19;1729855;81;21134;-74
2021/05/22 03:23:39;;;;;;;;;;;;;;;10.07;57.69;99725.19;1717438;83;20554;-73
2021/05/22 03:26:06;;;;;;;;;;;;;;;10.10;57.72;99734.14;1710558;82;20583;-73
2021/05/22 03:28:32;;;;;;;;;;;;;;;10.12;57.73;99736.24;1730565;82;20526;-73
2021/05/22 03:30:58;;;;;;;;;;;;;;;10.15;57.77;99736.16;1710857;82;20149;-73
2021/05/22 03:33:25;;;;;;;;;;;;;;;10.15;57.81;99740.88;1721181;82;20218;-73
2021/05/22 03:35:51;;;;;;;;;;;;;;;10.19;57.86;99741.64;1717184;83;20214;-73
2021/05/22 03:38:17;;;;;;;;;;;;;;;10.23;57.97;99740.70;1704460;83;21547;-73
2021/05/22 03:40:45;;;;;;;;;;;;;;;10.25;58.01;99744.08;1688648;83;20312;-73
2021/05/22 03:43:11;;;;;;;;;;;;;;;10.31;58.09;99748.23;1701753;83;20488;-73
2021/05/22 03:45:37;;;;;;;;;;;;;;;10.34;58.12;99753.31;1718204;83;20522;-73
2021/05/22 03:48:03;;;;;;;;;;;;;;;10.40;58.24;99759.12;1706639;83;20812;-73
2021/05/22 03:50:29;;;;;;;;;;;;;;;10.48;58.30;99767.94;1710107;83;20580;-73
2021/05/22 03:52:55;;;;;;;;;;;;;;;10.56;58.35;99778.91;1711523;83;20485;-73
2021/05/22 03:55:21;;;;;;;;;;;;;;;10.63;58.42;99792.05;1716756;83;20776;-73
2021/05/22 03:57:47;;;;;;;;;;;;;;;10.64;58.43;99783.86;1711456;83;20830;-73
2021/05/22 04:00:15;;;;;;;;;;;;;;;10.65;58.56;99776.50;1712811;83;20649;-73
2021/05/22 04:02:42;;;;;;;;;;;;;;;10.67;58.60;99770.84;1698889;83;20639;-73
2021/05/22 04:05:08;;;;;;;;;;;;;;;10.73;58.77;99781.84;1688416;83;20288;-73
2021/05/22 04:07:35;;;;;;;;;;;;;;;10.79;58.79;99775.64;1705166;83;20660;-73
2021/05/22 04:10:01;;;;;;;;;;;;;;;10.88;58.82;99780.54;1705286;83;20286;-74
2021/05/22 04:12:27;;;;;;;;;;;;;;;10.91;58.91;99780.45;1708899;83;20517;-73
2021/05/22 04:14:53;;;;;;;;;;;;;;;10.99;59.00;99787.49;1704007;83;20569;-74
2021/05/22 04:17:19;;;;;;;;;;;;;;;11.08;58.87;99790.24;1705916;83;21048;-73
2021/05/22 04:19:45;;;;;;;;;;;;;;;11.15;59.13;99791.75;1708084;83;20265;-73
2021/05/22 04:22:11;;;;;;;;;;;;;;;11.20;59.14;99784.23;1707097;83;21612;-73
2021/05/22 04:24:37;;;;;;;;;;;;;;;11.30;59.29;99791.27;1706539;83;20634;-73
2021/05/22 04:27:04;;;;;;;;;;;;;;;11.40;59.28;99785.34;1693202;83;20592;-73
2021/05/22 04:29:30;;;;;;;;;;;;;;;11.50;59.36;99782.82;1706955;83;20640;-73
2021/05/22 04:31:56;;;;;;;;;;;;;;;11.55;59.18;99788.25;1707126;83;20335;-73
2021/05/22 04:34:22;;;;;;;;;;;;;;;11.61;59.48;99793.22;1714391;83;20503;-73
2021/05/22 04:36:48;;;;;;;;;;;;;;;11.68;59.42;99792.56;1710629;83;20291;-73
2021/05/22 04:39:14;;;;;;;;;;;;;;;11.75;59.51;99794.05;1718077;82;20570;-73
2021/05/22 04:41:40;;;;;;;;;;;;;;;11.77;59.36;99797.47;1717163;81;20269;-73
2021/05/22 04:44:06;;;;;;;;;;;;;;;11.81;59.51;99806.83;1718624;83;20259;-73
2021/05/22 04:46:33;;;;;;;;;;;;;;;11.86;59.54;99808.82;1717643;83;20267;-73
2021/05/22 04:48:59;;;;;;;;;;;;;;;11.89;59.53;99807.42;1717493;81;20534;-73
2021/05/22 04:51:37;;;;;;;;;;;;;;;11.94;59.71;99811.15;1714822;82;20567;-73
2021/05/22 04:54:05;;;;;;;;;;;;;;;12.00;59.67;99800.98;1694285;83;21110;-74
2021/05/22 04:56:32;;;;;;;;;;;;;;;12.05;59.79;99805.56;1694800;83;20285;-73
2021/05/22 04:59:10;;;;;;;;;;;;;;;12.04;59.64;99802.58;1718583;83;20329;-73
2021/05/22 05:01:36;;;;;;;;;;;;;;;12.06;59.80;99804.22;1723130;83;20574;-73
2021/05/22 05:04:03;;;;;;;;;;;;;;;12.08;59.79;99797.69;1729882;82;20508;-73
2021/05/22 05:06:29;;;;;;;;;;;;;;;12.09;59.84;99800.67;1715670;82;21094;-73
2021/05/22 05:08:55;;;;;;;;;;;;;;;12.14;59.75;99802.66;1716572;81;20249;-73
2021/05/22 05:11:21;;;;;;;;;;;;;;;12.16;59.91;99795.67;1712005;82;20642;-73
2021/05/22 05:13:47;;;;;;;;;;;;;;;12.20;59.91;99799.39;1724221;81;20195;-73
2021/05/22 05:16:19;;;;;;;;;;;;;;;12.21;60.00;99792.47;1715773;82;20865;-73
2021/05/22 05:18:45;;;;;;;;;;;;;;;12.26;60.09;99799.62;1718224;81;20483;-73
2021/05/22 05:21:11;;;;;;;;;;;;;;;12.32;60.06;99792.08;1725315;81;20382;-73
2021/05/22 05:23:39;;;;;;;;;;;;;;;12.38;60.09;99790.11;1726001;82;20302;-73
2021/05/22 05:26:06;;;;;;;;;;;;;;;12.43;60.13;99786.91;1708727;82;20296;-73
2021/05/22 05:28:35;;;;;;;;;;;;;;;12.50;60.15;99787.49;1728582;81;20624;-73
2021/05/22 05:31:01;;;;;;;;;;;;;;;12.55;60.15;99794.20;1731452;81;20456;-73
2021/05/22 05:33:28;;;;;;;;;;;;;;;12.59;60.26;99802.26;1728271;81;20212;-73
2021/05/22 05:35:54;;;;;;;;;;;;;;;12.66;60.22;99804.63;1718040;81;20210;-73
2021/05/22 05:38:20;;;;;;;;;;;;;;;12.66;60.18;99808.06;1723496;82;20170;-73
2021/05/22 05:40:48;;;;;;;;;;;;;;;12.67;60.29;99807.16;1714752;82;20190;-73
2021/05/22 05:43:19;;;;;;;;;;;;;;;12.71;60.31;99804.84;1715256;83;20225;-73
2021/05/22 05:45:45;;;;;;;;;;;;;;;12.74;60.29;99802.59;1721958;82;20170;-73
2021/05/22 05:48:11;;;;;;;;;;;;;;;12.77;60.38;99798.59;1723344;83;20170;-73
2021/05/22 05:50:37;;;;;;;;;;;;;;;12.79;60.33;99798.08;1705845;81;20444;-73
2021/05/22 05:53:03;;;;;;;;;;;;;;;12.82;60.45;99798.80;1719705;81;20515;-73
2021/05/22 05:55:30;;;;;;;;;;;;;;;12.89;60.51;99800.72;1711029;81;20178;-73
2021/05/22 05:57:56;;;;;;;;;;;;;;;12.93;60.51;99800.54;1721865;82;20195;-73
2021/05/22 06:00:23;;;;;;;;;;;;;;;13.01;60.49;99800.21;1714168;82;20172;-73
2021/05/22 06:02:49;;;;;;;;;;;;;;;13.05;60.61;99806.12;1719849;82;20214;-74
2021/05/22 06:05:16;;;;;;;;;;;;;;;13.11;60.63;99804.14;1720993;82;20238;-74
2021/05/22 06:07:42;;;;;;;;;;;;;;;13.20;60.68;99815.49;1725322;82;20259;-73
2021/05/22 06:10:09;;;;;;;;;;;;;;;13.27;60.70;99808.77;1723318;81;20179;-74
2021/05/22 06:12:36;;;;;;;;;;;;;;;13.32;60.61;99805.08;1718561;81;20174;-74
2021/05/22 06:17:39;;;;;;;;;;;;;;;13.36;60.56;99804.05;1714169;82;20552;-73
2021/05/22 06:20:18;;;;;;;;;;;;;;;13.40;60.67;99805.61;1721504;83;20198;-74
2021/05/22 06:22:44;;;;;;;;;;;;;;;13.48;60.72;99810.05;1723158;82;20178;-74
2021/05/22 06:25:12;;;;;;;;;;;;;;;13.55;60.71;99819.70;1723844;82;20183;-74
2021/05/22 06:27:38;;;;;;;;;;;;;;;13.62;60.70;99817.25;1707986;82;20166;-74
2021/05/22 06:30:05;;;;;;;;;;;;;;;13.69;60.75;99823.88;1718734;82;20235;-74
2021/05/22 06:32:32;;;;;;;;;;;;;;;13.76;60.73;99814.92;1717038;82;20210;-74
2021/05/22 06:34:58;;;;;;;;;;;;;;;13.81;60.57;99813.43;1720867;82;20226;-76
2021/05/22 06:37:25;;;;;;;;;;;;;;;13.87;60.73;99809.28;1721695;82;20223;-76
2021/05/22 06:39:52;;;;;;;;;;;;;;;13.97;60.73;99809.28;1718645;82;20167;-74
2021/05/22 06:42:19;;;;;;;;;;;;;;;14.00;60.38;99801.80;1715681;83;20215;-75
2021/05/22 06:44:57;;;;;;;;;;;;;;;14.01;60.61;99800.89;1719271;83;20451;-75
2021/05/22 06:47:28;;;;;;;;;;;;;;;14.06;60.57;99808.01;1718110;83;20162;-75
2021/05/22 06:49:54;;;;;;;;;;;;;;;14.11;60.77;99800.41;1714496;83;20259;-75
2021/05/22 06:52:20;;;;;;;;;;;;;;;14.17;60.73;99798.84;1715898;83;20202;-75
2021/05/22 06:54:47;;;;;;;;;;;;;;;14.25;60.77;99787.64;1715270;83;20190;-75
2021/05/22 06:57:13;;;;;;;;;;;;;;;14.39;60.79;99792.23;1713885;82;20182;-74
2021/05/22 06:59:40;;;;;;;;;;;;;;;14.49;60.61;99783.14;1716803;83;20193;-77
2021/05/22 07:02:06;;;;;;;;;;;;;;;14.57;60.54;99786.20;1653516;86;20186;-76
2021/05/22 07:04:32;;;;;;;;;;;;;;;14.64;60.46;99784.17;1655449;86;20183;-75
2021/05/22 07:06:58;;;;;;;;;;;;;;;14.72;60.50;99792.47;1672272;84;20165;-76
2021/05/22 07:09:24;;;;;;;;;;;;;;;14.80;60.44;99799.47;1674646;84;20181;-76
2021/05/22 07:11:51;;;;;;;;;;;;;;;14.84;60.33;99810.58;1711251;83;20181;-76
2021/05/22 07:14:17;;;;;;;;;;;;;;;14.83;60.25;99802.38;1707053;83;20191;-76
2021/05/22 07:16:43;;;;;;;;;;;;;;;14.82;60.15;99807.20;1701918;82;20195;-76
2021/05/22 07:19:09;;;;;;;;;;;;;;;14.77;60.09;99798.31;1717720;82;20208;-76
2021/05/22 07:21:35;;;;;;;;;;;;;;;14.70;60.08;99796.05;1714621;82;20242;-75
2021/05/22 07:24:02;;;;;;;;;;;;;;;14.70;60.18;99799.50;1714938;83;20160;-74
2021/05/22 07:26:27;;;;;;;;;;;;;;;14.69;60.24;99795.67;1716607;82;20249;-75
2021/05/22 07:28:55;;;;;;;;;;;;;;;14.68;60.22;99800.48;1712601;82;20321;-74
2021/05/22 07:31:21;;;;;;;;;;;;;;;14.70;60.32;99804.70;1711575;82;20237;-74
2021/05/22 07:33:49;;;;;;;;;;;;;;;14.75;60.33;99791.03;1711835;83;20194;-79
2021/05/22 07:36:14;;;;;;;;;;;;;;;14.75;60.26;99794.09;1715825;82;20577;-77
2021/05/22 07:38:41;;;;;;;;;;;;;;;14.78;60.17;99788.74;1708094;83;20210;-80
2021/05/22 07:41:08;;;;;;;;;;;;;;;14.81;60.33;99791.20;1703805;83;20191;-78
2021/05/22 07:43:34;;;;;;;;;;;;;;;14.86;60.27;99798.34;1718734;83;20199;-77
2021/05/22 07:46:00;;;;;;;;;;;;;;;14.91;60.27;99802.87;1714144;83;20169;-78
2021/05/22 07:48:26;;;;;;;;;;;;;;;14.95;60.25;99797.91;1718273;83;20235;-78
2021/05/22 07:50:53;;;;;;;;;;;;;;;14.98;60.05;99800.83;1722100;83;20236;-78
2021/05/22 07:53:20;;;;;;;;;;;;;;;14.98;60.13;99805.58;1711027;83;20210;-77
2021/05/22 07:55:46;;;;;;;;;;;;;;;14.98;60.12;99804.28;1705376;83;20303;-76
2021/05/22 07:58:16;;;;;;;;;;;;;;;15.01;60.21;99804.59;1687350;83;20271;-75
2021/05/22 08:00:41;;;;;;;;;;;;;;;15.05;60.10;99800.93;1711761;82;20310;-76
2021/05/22 08:03:07;;;;;;;;;;;;;;;15.08;60.02;99805.50;1716410;83;20195;-75
2021/05/22 08:05:33;;;;;;;;;;;;;;;15.12;60.16;99802.30;1718357;83;20214;-77
2021/05/22 08:07:59;;;;;;;;;;;;;;;15.22;60.16;99798.34;1716768;83;20456;-75
2021/05/22 08:10:28;;;;;;;;;;;;;;;15.32;60.26;99798.28;1711384;83;20170;-75
2021/05/22 08:12:54;;;;;;;;;;;;;;;15.46;60.28;99800.22;1718112;83;20158;-75
2021/05/22 08:15:20;;;;;;;;;;;;;;;15.58;60.23;99804.86;1714712;83;20175;-76
2021/05/22 08:17:47;;;;;;;;;;;;;;;15.64;60.07;99803.22;1716467;83;20214;-75
2021/05/22 08:20:13;;;;;;;;;;;;;;;15.71;60.13;99800.70;1716455;83;142264;-76
2021/05/22 08:22:39;;;;;;;;;;;;;;;15.80;60.16;99796.33;1711893;83;20633;-75
2021/05/22 08:25:06;;;;;;;;;;;;;;;15.86;60.08;99796.48;1714244;82;20649;-76
2021/05/22 08:27:36;;;;;;;;;;;;;;;15.94;60.34;99794.78;1713830;83;20191;-75
2021/05/22 08:30:03;;;;;;;;;;;;;;;16.09;60.13;99787.48;1714359;83;20190;-75
2021/05/22 08:32:29;;;;;;;;;;;;;;;16.21;60.13;99782.44;1714923;82;20151;-75
2021/05/22 08:34:56;;;;;;;;;;;;;;;16.33;60.04;99782.72;1708997;82;20217;-75
2021/05/22 08:37:23;;;;;;;;;;;;;;;16.48;60.02;99781.91;1703950;84;20212;-74
2021/05/22 08:39:50;;;;;;;;;;;;;;;16.61;59.88;99787.31;1702323;83;20195;-75
2021/05/22 08:42:28;;;;;;;;;;;;;;;16.67;59.79;99791.75;1701095;83;20191;-75
2021/05/22 08:44:54;;;;;;;;;;;;;;;16.79;60.15;99786.32;1697826;82;20217;-75
2021/05/22 08:47:20;;;;;;;;;;;;;;;16.86;59.98;99783.75;1706558;82;20183;-75
2021/05/22 08:49:47;;;;;;;;;;;;;;;16.86;59.96;99780.68;1704950;82;20234;-75
2021/05/22 08:52:18;;;;;;;;;;;;;;;16.85;59.92;99780.30;1706959;83;20184;-75
2021/05/22 08:54:46;;;;;;;;;;;;;;;16.89;59.92;99780.97;1705682;82;20195;-75
2021/05/22 08:57:13;;;;;;;;;;;;;;;16.97;59.98;99785.77;1703742;82;20188;-75
2021/05/22 08:59:44;;;;;;;;;;;;;;;17.07;59.96;99776.50;1691959;84;20187;-76
2021/05/22 09:02:12;;;;;;;;;;;;;;;17.21;60.03;99776.08;1697568;83;20223;-76
2021/05/22 09:05:15;;;;;;;;;;;;;;;17.48;60.11;99774.13;1706809;83;20171;-77
2021/05/22 09:07:43;;;;;;;;;;;;;;;17.90;60.11;99771.24;1704555;82;20179;-77
2021/05/22 09:10:13;;;;;;;;;;;;;;;18.26;59.78;99765.07;1695489;82;20245;-76
2021/05/22 09:12:43;;;;;;;;;;;;;;;18.40;59.72;99763.77;1707788;83;20850;-75
2021/05/22 09:15:15;;;;;;;;;;;;;;;18.55;59.66;99754.59;1706198;83;20234;-75
2021/05/22 09:17:55;;;;;;;;;;;;;;;18.63;59.62;99745.34;1669635;84;20183;-75
2021/05/22 09:20:24;;;;;;;;;;;;;;;18.61;59.51;99745.91;1701125;84;20224;-75
2021/05/22 09:22:59;;;;;;;;;;;;;;;18.62;59.52;99749.37;1701932;83;20183;-76
2021/05/22 09:25:27;;;;;;;;;;;;;;;18.67;59.53;99739.45;1703396;84;20208;-76
2021/05/22 09:27:54;;;;;;;;;;;;;;;18.76;59.54;99737.05;1707162;83;20230;-75
2021/05/22 09:30:22;;;;;;;;;;;;;;;18.92;59.62;99731.68;1700752;84;20191;-75
2021/05/22 09:32:48;;;;;;;;;;;;;;;19.03;59.50;99737.07;1708069;83;20226;-76
2021/05/22 09:35:17;;;;;;;;;;;;;;;19.08;59.31;99734.98;1715391;81;20252;-76
2021/05/22 09:37:58;;;;;;;;;;;;;;;19.09;59.04;99741.08;1687989;83;20210;-75
2021/05/22 09:40:30;;;;;;;;;;;;;;;18.95;59.10;99738.03;1670411;85;20196;-78
2021/05/22 09:43:00;;;;;;;;;;;;;;;18.87;59.05;99741.61;1670645;85;20138;-74
2021/05/22 09:45:34;;;;;;;;;;;;;;;18.90;59.19;99740.58;1676256;84;20150;-74
2021/05/22 09:48:09;;;;;;;;;;;;;;;18.97;59.11;99737.47;1637347;85;20151;-74
2021/05/22 09:50:38;;;;;;;;;;;;;;;18.96;58.82;99733.63;1669505;84;20182;-74
2021/05/22 09:53:26;;;;;;;;;;;;;;;18.91;58.86;99740.48;1673193;84;20146;-74
2021/05/22 09:56:15;;;;;;;;;;;;;;;19.00;58.99;99736.42;1672192;85;20175;-74
2021/05/22 09:58:49;;;;;;;;;;;;;;;19.08;58.72;99733.68;1664682;84;20153;-74
2021/05/22 10:01:20;;;;;;;;;;;;;;;19.09;58.76;99728.81;1672015;85;20158;-74
2021/05/22 10:03:47;;;;;;;;;;;;;;;19.07;58.50;99727.23;1668156;84;20165;-74
2021/05/22 10:06:13;;;;;;;;;;;;;;;19.18;58.68;99716.89;1663398;84;20196;-74
2021/05/22 10:08:40;;;;;;;;;;;;;;;19.13;58.38;99721.13;1671247;84;20170;-74
2021/05/22 10:11:06;;;;;;;;;;;;;;;19.12;58.39;99722.53;1672347;84;20198;-74
2021/05/22 10:13:32;;;;;;;;;;;;;;;19.21;58.44;99731.10;1672070;85;20152;-74
2021/05/22 10:16:00;;;;;;;;;;;;;;;19.25;57.99;99735.64;1673092;84;20229;-74
2021/05/22 10:18:28;;;;;;;;;;;;;;;19.21;58.08;99733.72;1671651;85;20257;-74
2021/05/22 10:20:55;;;;;;;;;;;;;;;19.28;58.13;99726.27;1671017;84;20325;-74
2021/05/22 10:23:22;;;;;;;;;;;;;;;19.33;57.88;99730.27;1662948;84;20301;-74
2021/05/22 10:25:53;;;;;;;;;;;;;;;19.27;57.66;99736.38;1663402;84;20208;-74
2021/05/22 10:28:19;;;;;;;;;;;;;;;19.09;57.66;99730.12;1671025;85;20268;-74
2021/05/22 10:30:55;;;;;;;;;;;;;;;18.86;57.36;99734.69;1668585;84;20270;-74
2021/05/22 10:33:21;;;;;;;;;;;;;;;18.60;57.46;99725.03;1646332;85;20311;-74
2021/05/22 10:35:56;;;;;;;;;;;;;;;18.45;57.46;99725.05;1648782;85;20476;-74
2021/05/22 10:38:38;;;;;;;;;;;;;;;18.29;57.45;99740.49;1669124;84;20237;-74
2021/05/22 10:41:10;;;;;;;;;;;;;;;18.13;57.42;99778.56;1672376;84;20271;-74
2021/05/22 10:43:54;;;;;;;;;;;;;;;17.66;56.56;99784.86;1678147;83;20249;-74
2021/05/22 10:46:21;;;;;;;;;;;;;;;17.00;56.43;99806.03;1669943;84;20509;-74
2021/05/22 10:48:50;;;;;;;;;;;;;;;16.34;56.85;99828.30;1667288;84;20289;-74
2021/05/22 10:51:25;;;;;;;;;;;;;;;15.73;57.09;99853.59;1676470;84;20209;-73
2021/05/22 10:53:56;;;;;;;;;;;;;;;15.12;57.59;99851.77;1670215;85;20193;-73
2021/05/22 10:56:24;;;;;;;;;;;;;;;14.65;57.95;99837.90;1666994;85;20163;-73
2021/05/22 10:59:07;;;;;;;;;;;;;;;14.27;58.38;99831.78;1672172;85;20511;-73
2021/05/22 11:01:35;;;;;;;;;;;;;;;13.95;58.78;99833.19;1664924;85;20137;-73
2021/05/22 11:04:22;;;;;;;;;;;;;;;13.66;58.64;99834.85;1673555;84;20209;-73
2021/05/22 11:06:56;;;;;;;;;;;;;;;13.30;58.82;99839.34;1673811;84;20206;-73
2021/05/22 11:09:34;;;;;;;;;;;;;;;13.05;59.36;99843.31;1672504;85;20204;-73
2021/05/22 11:12:25;;;;;;;;;;;;;;;12.92;59.62;99840.81;1676692;84;20199;-73
2021/05/22 11:14:52;;;;;;;;;;;;;;;12.83;59.64;99835.97;1654056;85;20148;-73
2021/05/22 11:17:25;;;;;;;;;;;;;;;12.68;59.68;99828.76;1665708;84;20176;-73
2021/05/22 11:20:09;;;;;;;;;;;;;;;12.59;59.92;99830.78;1654027;85;20151;-73
2021/05/22 11:22:58;;;;;;;;;;;;;;;12.54;59.94;99831.86;1669458;84;20172;-73
2021/05/22 11:25:22;;;;;;;;;;;;;;;12.51;60.30;99832.81;1652451;85;20215;-73
2021/05/22 11:28:02;;;;;;;;;;;;;;;12.58;60.40;99835.58;1666162;84;20594;-73
2021/05/22 11:30:41;;;;;;;;;;;;;;;12.66;60.49;99834.45;1672158;84;20196;-73
2021/05/22 11:33:04;;;;;;;;;;;;;;;12.73;60.43;99833.33;1536661;85;10000402;-73
2021/05/22 11:35:35;;;;;;;;;;;;;;;12.77;60.65;99820.64;1673296;84;20183;-74
2021/05/22 11:38:14;;;;;;;;;;;;;;;12.84;60.37;99821.65;1675595;85;20527;-74
2021/05/22 11:40:44;;;;;;;;;;;;;;;12.95;60.78;99814.75;1653663;86;20154;-74
2021/05/22 11:43:18;;;;;;;;;;;;;;;13.14;61.03;99815.70;1657453;86;20201;-73
2021/05/22 11:45:53;;;;;;;;;;;;;;;13.35;60.78;99817.09;1655330;86;20200;-73
2021/05/22 11:48:39;;;;;;;;;;;;;;;13.46;60.74;99816.20;1674431;85;20260;-74
2021/05/22 11:51:26;;;;;;;;;;;;;;;13.58;60.86;99820.88;1683260;84;20289;-79
2021/05/22 11:53:58;;;;;;;;;;;;;;;13.67;60.77;99816.60;1682046;83;20388;-76
2021/05/22 11:56:25;;;;;;;;;;;;;;;13.73;60.75;99811.16;1656877;83;20298;-75
2021/05/22 11:58:53;;;;;;;;;;;;;;;13.87;60.84;99811.42;1660478;85;20255;-76
2021/05/22 12:01:23;;;;;;;;;;;;;;;14.04;60.98;99808.08;1676272;84;20185;-76
2021/05/22 12:03:53;;;;;;;;;;;;;;;14.29;61.23;99813.52;1666200;85;20278;-75
2021/05/22 12:06:25;;;;;;;;;;;;;;;14.49;61.05;99805.70;1667158;84;20286;-75
2021/05/22 12:09:09;;;;;;;;;;;;;;;14.68;60.94;99808.29;1676529;84;20299;-77
2021/05/22 12:11:38;;;;;;;;;;;;;;;14.75;60.74;99818.35;1661063;85;20443;-75
2021/05/22 12:14:06;;;;;;;;;;;;;;;14.82;60.95;99813.71;1671762;84;20222;-79
2021/05/22 12:16:33;;;;;;;;;;;;;;;14.88;60.93;99814.27;1633308;84;20287;-78
2021/05/22 12:19:11;;;;;;;;;;;;;;;14.94;60.85;99815.75;1670589;84;20313;-75
2021/05/22 12:21:39;;;;;;;;;;;;;;;14.99;61.36;99809.87;1665588;84;20528;-78
2021/05/22 12:24:10;;;;;;;;;;;;;;;15.22;61.19;99809.59;1675137;85;20292;-76
2021/05/22 12:26:37;;;;;;;;;;;;;;;15.34;61.25;99805.56;1663619;84;20283;-76
2021/05/22 12:29:04;;;;;;;;;;;;;;;15.45;61.40;99805.89;1666301;85;20279;-75
2021/05/22 12:31:30;;;;;;;;;;;;;;;15.59;61.49;99800.48;1672849;84;20297;-75
2021/05/22 12:34:05;;;;;;;;;;;;;;;15.73;61.55;99800.16;1669087;85;20287;-75
2021/05/22 12:36:33;;;;;;;;;;;;;;;15.82;61.49;99802.30;1668913;84;20273;-75
2021/05/22 12:39:11;;;;;;;;;;;;;;;15.74;61.11;99808.36;1643344;85;20258;-75
2021/05/22 12:41:38;;;;;;;;;;;;;;;15.65;61.17;99815.33;1658322;85;20298;-75
2021/05/22 12:44:07;;;;;;;;;;;;;;;15.64;61.48;99816.71;1671762;84;20256;-78
2021/05/22 12:46:37;;;;;;;;;;;;;;;15.62;61.41;99813.34;1672820;85;20326;-76
2021/05/22 12:49:20;;;;;;;;;;;;;;;15.54;61.49;99809.34;1674147;85;20174;-76
2021/05/22 12:52:12;;;;;;;;;;;;;;;15.51;61.77;99817.31;1672954;84;20266;-75
2021/05/22 12:54:42;;;;;;;;;;;;;;;15.51;61.94;99811.26;1661981;85;20258;-77
2021/05/22 12:57:12;;;;;;;;;;;;;;;15.57;62.08;99805.78;1674755;84;20159;-78
2021/05/22 12:59:44;;;;;;;;;;;;;;;15.69;62.41;99793.88;1670956;85;20149;-77